Tiempo atmosférico en la estación meteorológica de Caravaca de La Cruz, Murcia (643 m.)



Fecha
DESCASC
Temp. máxima en grados centígrados (hora)
DESCASC
Temp. mínima en grados centígrados (hora)
DESCASC
Temp. media en grados centígrados
DESCASC
Racha de viento máxima en m/sg (hora)
DESCASC
Velocidad máxima media en intervalos de 10 minutos(hora)
DESCASC
Precipitaciones diarias en mm
DESCASC
Precipitaciones de 00:00 a 06:00 en mm
DESCASC
Precipitaciones de 06:00 a 12:00 en mm
DESCASC
Precipitaciones de 12:00 a 18:00 en mm
DESCASC
Precipitaciones de 18:00 a 24:00 en mm
DESCASC
14-12-2019 16.1 (15:10) 4.1 (23:50) 10.1 9.72 (00:40) 5.56 (01:30) 0 0 0 0 0
13-12-2019 -- (--) -- (--) -- -- (--) -- (--) -- -- -- 0 0
12-12-2019 -- (--) -- (--) -- -- (--) -- (--) -- 0 0 0 --
11-12-2019 19.8 (12:40) 5.1 (00:00) 12.4 11.11 (18:20) 5.56 (13:10) 0 0 0 0 0
10-12-2019 17.2 (13:40) 2 (00:00) 9.6 7.78 (09:10) 5 (22:20) 0 0 0 0 0
09-12-2019 19.1 (15:10) 5.7 (00:00) 12.4 8.06 (15:50) 3.89 (16:50) 0 0 0 0 0
08-12-2019 17.4 (13:20) 4.4 (00:00) 10.9 7.22 (10:20) 4.72 (01:10) 0 0 0 0 0
07-12-2019 13.9 (13:40) 3.6 (00:00) 8.7 5.28 (22:00) 3.61 (22:00) 0 0 0 0 0
06-12-2019 -- (--) -- (--) -- -- (--) -- (--) 0.4 0.4 0 0 0
05-12-2019 11.8 (14:40) 7.1 (00:00) 9.5 4.72 (14:40) 2.22 (10:30) 0.6 0 0 0 0.6
04-12-2019 10.6 (15:10) 6.8 (00:00) 8.7 8.61 (07:30) 3.89 (06:20) 1.6 0.4 1 0.2 0
03-12-2019 8.9 (00:10) 6.2 (00:00) 7.5 10 (17:40) 4.44 (08:00) 32 20.4 1.4 3.6 6.6
02-12-2019 9.5 (15:10) 8 (00:00) 8.8 6.39 (13:00) 3.06 (22:10) 19.4 4.8 3.4 2 9.2
01-12-2019 15.7 (12:10) 6.5 (00:00) 11.1 8.89 (05:20) 6.11 (05:20) 0.4 0 0 0 0.4
30-11-2019 19.2 (13:20) 5.6 (00:00) 12.4 5 (00:50) 3.33 (00:50) 0 0 0 0 0
29-11-2019 19.6 (12:30) 4.7 (00:00) 12.2 6.11 (09:30) 3.33 (04:10) 0 0 0 0 0
28-11-2019 18.5 (12:40) 6.6 (00:00) 12.5 7.78 (06:30) 4.72 (06:30) 0 0 0 0 0
27-11-2019 19.3 (12:30) 7.6 (00:00) 13.4 9.72 (15:20) 5 (01:50) 0 0 0 0 0
26-11-2019 19.6 (14:00) 7.6 (00:00) 13.6 6.11 (06:50) 3.61 (06:00) 0 0 0 0 0
25-11-2019 19.2 (13:20) 4.9 (00:00) 12.1 13.33 (15:00) 7.22 (15:00) 0 0 0 0 0
24-11-2019 14.9 (13:00) 4.1 (00:00) 9.5 10.28 (02:30) 5.28 (02:30) 0 0 0 0 0
23-11-2019 14.1 (13:20) 6.8 (00:00) 10.5 21.11 (02:10) 9.44 (11:20) 4 3.8 0.2 0 0
22-11-2019 14.4 (13:40) 6.5 (00:00) 10.4 7.5 (18:40) 4.44 (18:40) 8.6 0 0 2.4 6.2
21-11-2019 15 (15:30) 3.6 (00:00) 9.3 7.22 (05:20) 3.89 (12:30) 0.6 0 0 0 0.6
20-11-2019 13.7 (13:20) -0.4 (00:00) 6.6 8.06 (17:50) 4.44 (05:00) 0.4 0 0 0.2 0.2
19-11-2019 13.4 (13:30) 1.2 (00:00) 7.3 7.5 (07:40) 5.28 (07:40) 0 0 0 0 0
18-11-2019 12.9 (12:50) 3.4 (00:00) 8.1 11.11 (03:00) 5.28 (13:40) 4.8 4.8 0 0 0
17-11-2019 14.4 (15:40) -0.3 (00:00) 7 11.39 (14:10) 6.11 (14:10) 1.2 0 0 0 1.2
16-11-2019 12.3 (13:00) 0.9 (00:00) 6.6 9.17 (16:00) 4.44 (12:20) 0 0 0 0 0
15-11-2019 -- (--) -- (--) -- -- (--) -- (--) -- 0 0 -- 0

Gráficas

Temp. máximas Temp. mínimas Temp. medias Precipitaciones Rachas de viento máximas Velocidades máximas media en intervalos de 10 minutos

Datos horarios

Fecha y hora oficial Temperatura (ºC) Velocidad del viento (km/h) Dirección del viento Racha (km/h) Dirección de racha Precipitación (mm) Presión (hPa) Tendencia (hPa) Humedad (%)
2019-12-14 23:00:00 5.5 3 Noroeste 11 Sudoeste 0 944.1 0.5 87
2019-12-14 22:00:00 5.9 6 Oeste 8 Oeste 0 943.9 0.4 88
2019-12-14 21:00:00 6.6 3 Sudoeste 10 Oeste 0 943.7 0.6 86
2019-12-14 20:00:00 6.9 2 Oeste 8 Noroeste 0 943.6 0.8 84
2019-12-14 19:00:00 8.5 0 Calma 12 Noroeste 0 943.5 1 80
2019-12-14 18:00:00 10.5 6 Noroeste 9 Noroeste 0 943.1 0.5 74
2019-12-14 17:00:00 14.4 3 Noroeste 16 Nordeste 0 942.8 -0.5 60
2019-12-14 16:00:00 15.5 6 Nordeste 17 Nordeste 0 942.5 -1.4 50
2019-12-14 15:00:00 15.7 4 Norte 10 Nordeste 0 942.6 -2.3 49
2019-12-14 14:00:00 15.5 4 Oeste 11 Sudeste 0 943.3 -1.5 50
2019-12-14 13:00:00 14.3 7 Este 11 Este 0 943.9 -0.5 52
2019-12-14 12:00:00 13.4 3 Este 11 Este 0 944.9 1 54
2019-12-14 11:00:00 12.7 3 Sudeste 7 Este 0 944.8 1.5 53
2019-12-14 10:00:00 10.4 3 Oeste 15 Oeste 0 944.4 1.2 60
2019-12-14 09:00:00 8 10 Oeste 19 Oeste 0 943.9 1.2 67
2019-12-14 08:00:00 7.7 14 Oeste 28 Oeste 0 943.3 0.5 74
2019-12-14 07:00:00 6.8 8 Oeste 18 Oeste 0 943.2 0.2 74
2019-12-14 06:00:00 6.6 6 Sudoeste 18 Oeste 0 942.7 0 69
2019-12-14 05:00:00 8.2 8 Oeste 20 Oeste 0 942.8 0.1 67
2019-12-14 04:00:00 8.5 6 Oeste 23 Sudoeste 0 943 1.1 64
2019-12-14 03:00:00 10.4 13 Oeste 30 Oeste 0 942.7 0.7 57
2019-12-14 02:00:00 10.8 14 Oeste 31 Sudoeste 0 942.7 -0.4 58
2019-12-14 01:00:00 12.1 15 Oeste 35 Sudoeste 0 941.9 -1.7 54
2019-12-14 00:00:00 12.6 18 Sur 34 Sur 0 942 -1.2 56
2019-12-13 23:00:00 11.5 8 Sudoeste 25 Sudoeste 0 943.1 0.5 66
2019-12-13 22:00:00 12.1 11 Sudoeste 22 Sudoeste 0 943.6 1.4 63
2019-12-13 21:00:00 12.8 12 Sudoeste 37 Oeste 0 943.2 1.6 59
2019-12-13 20:00:00 13.5 19 Oeste 39 Sudoeste 0 942.6 1.4 56
2019-12-13 19:00:00 14.5 13 Oeste 33 Oeste 0 942.2 2 51
2019-12-13 18:00:00 14.6 18 Oeste 39 Oeste 0 941.6 1.7 51
2019-12-13 17:00:00 15 13 Oeste 30 Oeste 0 941.2 1.1 48
2019-12-13 16:00:00 16.4 14 Oeste 37 Sudoeste 0 940.2 -0.2 42
2019-12-13 15:00:00 15.8 14 Oeste 38 Sudoeste 0 939.9 -0.6 43
2019-12-13 14:00:00 15.6 17 Sudoeste 45 Sudoeste 0 940.1 0.3 44
2019-12-13 13:00:00 16.8 23 Sudoeste 43 Sudoeste 0 940.4 1.4 39
2019-12-13 12:00:00 16.4 20 Sudoeste 43 Oeste 0 940.5 -- 40
2019-12-13 11:00:00 16.7 25 Oeste 54 Sudoeste 0 939.8 -- 40
2019-12-13 10:00:00 15.5 22 Oeste -- -- -- 939 -- 46
2019-12-13 09:00:00 -- -- -- -- -- -- -- -- --
2019-12-13 08:00:00 -- -- -- -- -- -- -- -- --
2019-12-13 07:00:00 -- -- -- -- -- -- -- -- --
2019-12-13 06:00:00 -- -- -- -- -- -- -- -- --
2019-12-13 05:00:00 -- -- -- -- -- -- -- -- --
2019-12-13 04:00:00 -- -- -- -- -- -- -- -- --
2019-12-13 03:00:00 -- -- -- -- -- -- -- -- --
2019-12-13 02:00:00 -- -- -- -- -- -- -- -- --
2019-12-13 01:00:00 -- -- -- -- -- -- -- -- --
2019-12-13 00:00:00 -- -- -- -- -- -- -- -- --
2019-12-12 23:00:00 -- -- -- -- -- -- -- -- --
2019-12-12 22:00:00 -- -- -- -- -- -- -- -- --
2019-12-12 21:00:00 -- -- -- -- -- -- -- -- --
2019-12-12 20:00:00 -- -- -- -- -- -- -- -- --
2019-12-12 19:00:00 -- -- -- -- -- -- -- -- --
2019-12-12 18:00:00 9.6 9 Sudoeste 39 Sudoeste 0 942.4 -1 55
2019-12-12 17:00:00 11.1 19 Oeste 37 Sudoeste 0 942.6 -2 46
2019-12-12 16:00:00 11.6 15 Oeste 40 Oeste 0 943.1 -2.8 46
2019-12-12 15:00:00 11.6 15 Oeste 45 Oeste 0 943.4 -3.3 45
2019-12-12 14:00:00 11.1 10 Sudeste 37 Sudoeste 0 944.6 -2.6 45
2019-12-12 13:00:00 12.5 9 Noroeste 35 Oeste 0 945.9 -1.2 41
2019-12-12 12:00:00 12.4 5 Sudoeste 15 Oeste 0 946.7 -0.3 42
2019-12-12 11:00:00 8.5 12 Sudoeste 23 Sudoeste 0 947.2 0.3 57
2019-12-12 10:00:00 6.7 12 Sudoeste 24 Sudoeste 0 947.1 0.5 63
2019-12-12 09:00:00 5.3 13 Sudoeste 24 Sudoeste 0 947 -0.3 66
2019-12-12 08:00:00 6 10 Oeste 18 Sudoeste 0 946.9 -0.5 60
2019-12-12 07:00:00 7.6 12 Oeste 19 Oeste 0 946.6 -1.3 49
2019-12-12 06:00:00 7.8 9 Sudoeste 20 Sudoeste 0 947.3 -0.8 49
2019-12-12 05:00:00 6.4 16 Sudoeste 25 Sudoeste 0 947.4 -1.3 55
2019-12-12 04:00:00 3.8 3 Nordeste 26 Sur 0 947.9 -1.5 68
2019-12-12 03:00:00 3.2 4 Oeste 13 Sudoeste 0 948.1 -1.5 72
2019-12-12 02:00:00 3.7 6 Sudoeste 10 Noroeste 0 948.7 -0.5 73
2019-12-12 01:00:00 5.7 8 Sudoeste 14 Oeste 0 949.4 0.5 63
2019-12-12 00:00:00 7.3 6 Sudoeste 27 Norte 0 949.6 1.1 54
2019-12-11 23:00:00 8.5 6 Oeste 22 Noroeste 0 949.2 1.5 49
2019-12-11 22:00:00 8.6 6 Sudeste 25 Oeste 0 948.9 2.1 51
2019-12-11 21:00:00 9.5 8 Oeste 24 Oeste 0 948.5 2.9 51
2019-12-11 20:00:00 10.7 9 Noroeste 35 Norte 0 947.7 2.7 53
2019-12-11 19:00:00 11.4 7 Norte 40 Noroeste 0 946.8 1.7 51
2019-12-11 18:00:00 12.9 10 Noroeste 37 Noroeste 0 945.6 0 49
2019-12-11 17:00:00 14.8 13 Noroeste 33 Oeste 0 945 -0.4 49
2019-12-11 16:00:00 15.8 11 Oeste 32 Norte 0 945.1 -0.5 41
2019-12-11 15:00:00 17.1 5 Noroeste 40 Oeste 0 945.6 -0.6 31
2019-12-11 14:00:00 18 13 Oeste 38 Oeste 0 945.4 -1.6 34
2019-12-11 13:00:00 18.7 19 Oeste 39 Oeste 0 945.6 -1.6 26
2019-12-11 12:00:00 18.4 13 Oeste 35 Sudoeste 0 946.2 -0.9 21
2019-12-11 11:00:00 14.8 10 Sur 19 Sur 0 947 -0.1 31
2019-12-11 10:00:00 10.5 9 Sudoeste 25 Oeste 0 947.2 0 46
2019-12-11 09:00:00 8.4 9 Sudoeste 27 Sudoeste 0 947.1 -0.1 45
2019-12-11 08:00:00 7.5 15 Oeste 24 Sudoeste 0 947.1 -0.5 43
2019-12-11 07:00:00 6.7 12 Oeste 22 Oeste 0 947.2 -0.9 39
2019-12-11 06:00:00 5.9 10 Oeste 22 Oeste 0 947.2 -1.1 41
2019-12-11 05:00:00 6.1 12 Oeste 20 Oeste 0 947.6 -1 40
2019-12-11 04:00:00 5.6 13 Oeste 21 Oeste 0 948.1 -1 44
2019-12-11 03:00:00 5.4 15 Oeste 27 Oeste 0 948.3 -1.3 45
2019-12-11 02:00:00 5.7 10 Oeste 22 Oeste 0 948.6 -0.9 43
2019-12-11 01:00:00 5.3 4 Sudoeste 23 Oeste 0 949.1 -0.4 49
2019-12-11 00:00:00 5.7 14 Oeste 25 Oeste 0 949.6 -0.3 52
2019-12-10 23:00:00 6.3 16 Oeste 27 Oeste 0 949.5 -0.5 52
2019-12-10 22:00:00 7.1 14 Oeste 22 Oeste 0 949.5 -0.4 50
2019-12-10 21:00:00 7 9 Oeste 17 Sudoeste 0 949.9 0.2 55
2019-12-10 20:00:00 8.4 7 Oeste 14 Oeste 0 950 0.3 51
2019-12-10 19:00:00 7.6 5 Oeste 13 Noroeste 0 949.9 0.2 56
2019-12-10 18:00:00 10.6 8 Noroeste 15 Noroeste 0 949.7 -0.4 49
2019-12-10 17:00:00 14.4 4 Noroeste 9 Sudeste 0 949.7 -0.8 43
2019-12-10 16:00:00 16.4 4 Sudeste 12 Este 0 949.7 -1.6 28
2019-12-10 15:00:00 16.6 8 Este 13 Sudeste 0 950.1 -2.2 29
2019-12-10 14:00:00 17.1 5 Este 9 Este 0 950.5 -1.9 28
2019-12-10 13:00:00 16.2 4 Este 8 Este 0 951.3 -1.1 28
2019-12-10 12:00:00 15.7 4 Sudeste 10 Este 0 952.3 0.2 28
2019-12-10 11:00:00 14.5 4 Sudeste 14 Oeste 0 952.4 0.7 37
2019-12-10 10:00:00 10.7 4 Sudeste 28 Oeste 0 952.4 0.7 41
2019-12-10 09:00:00 7.1 13 Oeste 23 Oeste 0 952.1 -0.2 44
2019-12-10 08:00:00 2.6 6 Oeste 22 Sudoeste 0 951.7 -0.6 67
2019-12-10 07:00:00 6 12 Oeste 25 Sudoeste 0 951.7 -0.7 43
2019-12-10 06:00:00 2 4 Oeste 14 Oeste 0 952.3 -0.5 74
2019-12-10 05:00:00 2.4 5 Noroeste 10 Norte 0 952.3 -1 74
2019-12-10 04:00:00 4.2 6 Oeste 20 Oeste 0 952.4 -0.9 63
2019-12-10 03:00:00 5.4 11 Oeste 20 Sudoeste 0 952.8 -0.6 70
2019-12-10 02:00:00 4.8 4 Noroeste 14 Oeste 0 953.3 0.3 71
2019-12-10 01:00:00 5.6 5 Oeste 11 Noroeste 0 953.3 0.4 70
2019-12-10 00:00:00 5.8 5 Oeste 10 Oeste 0 953.4 0.8 67
2019-12-09 23:00:00 6.2 4 Oeste 9 Noroeste 0 953 1.1 66
2019-12-09 22:00:00 7.2 5 Noroeste 9 Noroeste 0 952.9 1.5 58
2019-12-09 21:00:00 9.7 3 Norte 13 Oeste 0 952.6 1.5 39
2019-12-09 20:00:00 13.4 11 Sudoeste 21 Oeste 0 951.9 0.9 27
2019-12-09 19:00:00 15.1 11 Oeste 19 Oeste 0 951.4 0.6 22
2019-12-09 18:00:00 13.8 7 Oeste 17 Noroeste 0 951.1 0.3 31
2019-12-09 17:00:00 17.4 10 Oeste 27 Oeste 0 951 -0.3 19
2019-12-09 16:00:00 18.4 10 Oeste 29 Oeste 0 950.8 -1.4 18
2019-12-09 15:00:00 19 6 Oeste 20 Nordeste 0 950.8 -2.2 18
2019-12-09 14:00:00 16.8 3 Sur 12 Este 0 951.3 -1.8 43
2019-12-09 13:00:00 16.3 4 Sudeste 9 Sudeste 0 952.2 -0.1 50
2019-12-09 12:00:00 14.9 3 Sur 8 Este 0 953 1.6 53
2019-12-09 11:00:00 12.9 4 Este 7 Este 0 953.1 2.1 61
2019-12-09 10:00:00 9.1 3 Nordeste 7 Nordeste 0 952.3 1.2 77
2019-12-09 09:00:00 8.8 3 Sur 19 Sudoeste 0 951.4 1 71
2019-12-09 08:00:00 9.9 10 Sudoeste 19 Oeste 0 951 1.3 69
2019-12-09 07:00:00 6.7 4 Oeste 11 Norte 0 951.1 1.2 86
2019-12-09 06:00:00 7.9 3 Norte 12 Oeste 0 950.4 0.6 82
2019-12-09 05:00:00 11.3 5 Oeste 18 Oeste 0 949.7 0.2 70
2019-12-09 04:00:00 12.4 9 Oeste 22 Oeste 0 949.9 -0.1 65
2019-12-09 03:00:00 12.9 7 Noroeste 24 Norte 0 949.8 -0.3 62
2019-12-09 02:00:00 13.3 7 Noroeste 22 Noroeste 0 949.5 0.1 60
2019-12-09 01:00:00 11.4 7 Sur 11 Sur 0 950 0.7 65
2019-12-09 00:00:00 11.9 4 Este 9 Este 0 950.1 0.7 65
2019-12-08 23:00:00 11.7 6 Sudoeste 20 Sudoeste 0 949.4 0.2 63
2019-12-08 22:00:00 11.8 8 Sudoeste 16 Sur 0 949.3 0.4 56
2019-12-08 21:00:00 11.7 8 Sur 19 Sur 0 949.4 1 57
2019-12-08 20:00:00 10.4 6 Oeste 12 Sudoeste 0 949.2 1.1 63
2019-12-08 19:00:00 9.8 4 Oeste 12 Oeste 0 948.9 1 72
2019-12-08 18:00:00 10.8 3 Oeste 10 Noroeste 0 948.4 0.5 67
2019-12-08 17:00:00 15.2 3 Sudeste 9 Este 0 948.1 -0.5 58
2019-12-08 16:00:00 16 5 Este 13 Este 0 947.9 -1.5 51
2019-12-08 15:00:00 16.4 5 Este 12 Este 0 947.9 -2.2 43
2019-12-08 14:00:00 16.4 7 Este 14 Nordeste 0 948.6 -1.8 46
2019-12-08 13:00:00 17.2 4 Sudoeste 13 Sudoeste 0 949.4 -0.7 41
2019-12-08 12:00:00 15 9 Sudoeste 15 Sudoeste 0 950.1 0.3 48
2019-12-08 11:00:00 12.5 6 Sudoeste 26 Sudoeste 0 950.4 0.9 57
2019-12-08 10:00:00 8.9 9 Oeste 20 Sudoeste 0 950.1 0.8 67
2019-12-08 09:00:00 5.6 12 Oeste 24 Oeste 0 949.8 0.6 76
2019-12-08 08:00:00 4.6 17 Oeste 25 Oeste 0 949.5 0.2 81
2019-12-08 07:00:00 4.7 15 Oeste 24 Oeste 0 949.3 -0.2 82
2019-12-08 06:00:00 5.1 13 Oeste 21 Oeste 0 949.2 -0.5 82
2019-12-08 05:00:00 5.4 9 Oeste 24 Oeste 0 949.3 -0.4 82
2019-12-08 04:00:00 5.5 12 Oeste 21 Oeste 0 949.5 -0.3 82
2019-12-08 03:00:00 5.8 14 Oeste 21 Oeste 0 949.7 -0.4 80
2019-12-08 02:00:00 5.7 9 Sudoeste 22 Oeste 0 949.7 -0.3 81
2019-12-08 01:00:00 6.5 13 Oeste 21 Oeste 0 949.8 0.1 79
2019-12-08 00:00:00 6.5 12 Oeste 19 Oeste 0 950.1 0.6 80
2019-12-07 23:00:00 6.8 8 Oeste 17 Oeste 0 950 0.8 79
2019-12-07 22:00:00 7.1 13 Oeste 19 Oeste 0 949.7 1.1 78
2019-12-07 21:00:00 7.5 11 Sudoeste 14 Sudoeste 0 949.5 1.2 78
2019-12-07 20:00:00 7.6 7 Sudoeste 11 Noroeste 0 949.2 1.4 80
2019-12-07 19:00:00 8.8 3 Oeste 13 Noroeste 0 948.6 1.1 76
2019-12-07 18:00:00 9.6 5 Noroeste 8 Noroeste 0 948.3 0.8 80
2019-12-07 17:00:00 12.8 3 Este 11 Este 0 947.8 0 64
2019-12-07 16:00:00 13.4 6 Este 12 Este 0 947.5 -0.9 63
2019-12-07 15:00:00 13.6 7 Este 14 Este 0 947.5 -1.5 63
2019-12-07 14:00:00 13.3 8 Este 14 Este 0 947.8 -1.5 65
2019-12-07 13:00:00 13.4 7 Este 13 Este 0 948.4 -0.6 65
2019-12-07 12:00:00 12.5 4 Nordeste 9 Sudeste 0 949 0.4 66
2019-12-07 11:00:00 11.1 3 Sudoeste 12 Sudoeste 0 949.3 0.8 71
2019-12-07 10:00:00 8.1 8 Oeste 17 Oeste 0 949 0.9 82
2019-12-07 09:00:00 5.1 8 Oeste 14 Oeste 0 948.6 0.7 91
2019-12-07 08:00:00 4.2 5 Oeste 14 Oeste 0 948.5 0.6 91
2019-12-07 07:00:00 4.1 4 Sudoeste 14 Oeste 0 948.1 -0.2 91
2019-12-07 06:00:00 3.7 3 Oeste 9 Oeste 0 947.9 -0.4 91
2019-12-07 05:00:00 4.9 5 Oeste 9 Oeste 0 947.9 -0.2 91
2019-12-07 04:00:00 5.2 8 Oeste 12 Oeste 0 948.3 0 92
2019-12-07 03:00:00 4.5 4 Oeste 6 Sudoeste 0 948.3 -0.2 90
2019-12-07 02:00:00 5.3 4 Oeste 7 Sudoeste 0 948.1 -0.4 90
2019-12-07 01:00:00 6.3 4 Oeste 11 Oeste 0 948.3 -0.2 89
2019-12-07 00:00:00 7.1 4 Oeste 9 Oeste 0 948.5 0.2 89
2019-12-06 23:00:00 8.5 3 Noroeste 6 Norte 0 948.5 0.4 87
2019-12-06 22:00:00 9.1 3 Sudoeste 8 Noroeste 0 948.5 1 87
2019-12-06 21:00:00 9.2 2 Oeste 4 Noroeste 0 948.3 1.5 87
2019-12-06 20:00:00 9.7 3 Oeste 6 Oeste 0 948.1 1.4 84
2019-12-06 19:00:00 9.7 -- -- -- -- -- 947.5 0.9 82
2019-12-06 18:00:00 10.4 4 Norte 8 Norte 0 946.8 0 75
2019-12-06 17:00:00 11.1 6 Nordeste 12 Este 0 946.7 -0.7 74
2019-12-06 16:00:00 11.5 5 Este 10 Este 0 946.6 -- 73
2019-12-06 15:00:00 11.4 4 Sudeste 7 Sudeste 0 946.8 -1.7 77
2019-12-06 14:00:00 10.6 5 Este -- -- -- 947.4 -1.4 77
2019-12-06 13:00:00 -- -- -- -- -- -- -- -- --
2019-12-06 12:00:00 10 8 Este 11 Nordeste 0 948.5 1 83
2019-12-06 11:00:00 9.6 5 Sudeste 11 Sudeste 0 948.8 1.8 88
2019-12-06 10:00:00 9.2 5 Este 12 Sudeste 0 948.2 1.6 90
2019-12-06 09:00:00 8.6 2 Nordeste 12 Nordeste 0 947.5 1.3 90
2019-12-06 08:00:00 8.5 4 Este 11 Este 0 947 0.8 91
2019-12-06 07:00:00 8.6 4 Sudeste 7 Este 0 946.6 0.7 91
2019-12-06 06:00:00 8.7 3 Este 11 Nordeste 0.2 946.2 0.4 90
2019-12-06 05:00:00 8.8 4 Nordeste 13 Nordeste 0.2 946.2 0.4 90
2019-12-06 04:00:00 8.7 5 Norte 18 Nordeste 0 945.9 0 91
2019-12-06 03:00:00 9 2 Este 6 Noroeste 0 945.8 -0.4 91
2019-12-06 02:00:00 9 2 Noroeste 6 Este 0 945.8 -0.5 90
2019-12-06 01:00:00 9.1 4 Norte 8 Norte 0 945.9 0.1 90
2019-12-06 00:00:00 9 3 Norte 6 Noroeste 0 946.2 0.9 90
2019-12-05 23:00:00 9 3 Norte 11 Este 0 946.3 1.5 89
2019-12-05 22:00:00 9.1 3 Este 9 Nordeste 0 945.8 1.7 89
2019-12-05 21:00:00 9.2 3 Nordeste 10 Este 0.6 945.3 2 86
2019-12-05 20:00:00 9.3 4 Nordeste 10 Norte 0 944.8 2.2 81
2019-12-05 19:00:00 9.1 3 Nordeste 8 Norte 0 944.1 2.2 82
2019-12-05 18:00:00 9 5 Norte 10 Norte 0 943.3 1.5 81
2019-12-05 17:00:00 9.6 3 Noroeste 12 Este 0 942.6 0.5 79
2019-12-05 16:00:00 11 6 Nordeste 13 Este 0 941.9 -0.4 70
2019-12-05 15:00:00 11 6 Nordeste 17 Este 0 941.8 -0.7 70
2019-12-05 14:00:00 10.9 4 Nordeste 14 Nordeste 0 942.1 0.3 67
2019-12-05 13:00:00 9.5 4 Nordeste 10 Nordeste 0 942.3 1.5 79
2019-12-05 12:00:00 9 6 Nordeste 14 Nordeste 0 942.5 2.3 81
2019-12-05 11:00:00 9.6 7 Nordeste 16 Nordeste 0 941.8 2.8 78
2019-12-05 10:00:00 9.1 5 Este 10 Nordeste 0 940.8 3 80
2019-12-05 09:00:00 7.5 3 Este 7 Sudeste 0 940.2 2.6 88
2019-12-05 08:00:00 7.2 2 Noroeste 11 Sur 0 939 1.6 87
2019-12-05 07:00:00 7.2 3 Sudeste 8 Sudoeste 0 937.8 0.5 88
2019-12-05 06:00:00 7.5 4 Sudoeste 5 Sudoeste 0 937.6 0.8 88
2019-12-05 05:00:00 7.7 3 Sudeste 11 Norte 0 937.4 1.2 85
2019-12-05 04:00:00 7.7 5 Noroeste 10 Norte 0 937.3 1.3 86
2019-12-05 03:00:00 7.9 2 Este 7 Este 0 936.8 1.2 86
2019-12-05 02:00:00 8.2 4 Noroeste 8 Sur 0 936.2 0.9 83
2019-12-05 01:00:00 8.8 3 Nordeste 10 Oeste 0 936 0.9 75
2019-12-05 00:00:00 9.3 7 Oeste 14 Oeste 0 935.6 1 71
2019-12-04 23:00:00 9.1 3 Nordeste 18 Noroeste 0 935.3 1.2 73
2019-12-04 22:00:00 8.5 8 Oeste 13 Oeste 0 935.1 1.4 77
2019-12-04 21:00:00 7.8 4 Sudoeste 8 Sudoeste 0 934.6 1.2 86
2019-12-04 20:00:00 8 2 Noroeste 7 Noroeste 0 934.1 1.2 87
2019-12-04 19:00:00 8.5 2 Oeste 8 Oeste 0 933.7 1.4 89
2019-12-04 18:00:00 9 3 Oeste 9 Sudeste 0 933.4 1.2 87
2019-12-04 17:00:00 9.7 3 Nordeste 14 Norte 0 932.9 0.8 83
2019-12-04 16:00:00 10.4 5 Noroeste 19 Noroeste 0 932.3 0.1 68
2019-12-04 15:00:00 10.5 5 Noroeste 12 Norte 0 932.2 -0.9 73
2019-12-04 14:00:00 10.2 4 Sudeste 15 Este 0 932.1 -0.9 76
2019-12-04 13:00:00 9.9 5 Sudeste 10 Sudeste 0.2 932.2 -0.5 79
2019-12-04 12:00:00 9.1 4 Norte 16 Oeste 0.4 933.1 0.9 82
2019-12-04 11:00:00 8.9 8 Oeste 26 Oeste 0.4 933 1 80
2019-12-04 10:00:00 9.9 6 Noroeste 23 Norte 0 932.7 0.7 70
2019-12-04 09:00:00 9.8 8 Noroeste 23 Norte 0 932.2 -0.1 70
2019-12-04 08:00:00 9.2 9 Norte 31 Norte 0.2 932 -0.7 74
2019-12-04 07:00:00 9.5 9 Noroeste 28 Norte 0 932 -1.6 75
2019-12-04 06:00:00 9.5 9 Norte 26 Noroeste 0 932.3 -2.1 76
2019-12-04 05:00:00 9 11 Norte 28 Oeste 0 932.7 -2.5 80
2019-12-04 04:00:00 7.8 8 Norte 23 Norte 0 933.6 -2.4 90
2019-12-04 03:00:00 7.3 9 Sudoeste 19 Sudoeste 0.2 934.4 -2.4 89
2019-12-04 02:00:00 7.7 4 Este 18 Nordeste 0.2 935.2 -2.3 86
2019-12-04 01:00:00 7.6 5 Nordeste 19 Norte 0 936 -1.9 85
2019-12-04 00:00:00 6.8 3 Nordeste 19 Norte 0.8 936.8 -1.2 87
2019-12-03 23:00:00 6.7 7 Nordeste 27 Norte 0.2 937.5 -0.5 83
2019-12-03 22:00:00 6.5 10 Norte 24 Norte 0 937.9 0.4 82
2019-12-03 21:00:00 6.4 14 Norte 32 Norte 0.6 938 0.5 84
2019-12-03 20:00:00 6.3 11 Norte 30 Norte 2.4 938 0.8 88
2019-12-03 19:00:00 6.7 10 Norte 30 Norte 2.6 937.5 0.6 89
2019-12-03 18:00:00 7 10 Norte 36 Norte 0.6 937.5 0.5 89
2019-12-03 17:00:00 7.3 12 Norte 31 Norte 1.8 937.2 -0.2 89
2019-12-03 16:00:00 7.4 12 Norte 31 Norte 0.6 936.9 -1.1 88
2019-12-03 15:00:00 7.5 12 Norte 27 Norte 0.4 937 -2 89
2019-12-03 14:00:00 7.8 8 Nordeste 21 Norte 0.2 937.4 -1.9 90
2019-12-03 13:00:00 8 10 Norte 29 Norte 0 938 -1.3 88
2019-12-03 12:00:00 7.7 10 Norte 29 Norte 0 939 -0.4 88
2019-12-03 11:00:00 7.7 10 Norte 28 Norte 0 939.3 0.2 88
2019-12-03 10:00:00 7.5 13 Norte 28 Norte 0.2 939.3 0.5 89
2019-12-03 09:00:00 7.3 12 Norte 31 Norte 0.2 939.4 0.8 88
2019-12-03 08:00:00 7.2 16 Norte 32 Norte 0.4 939.1 -0.3 88
2019-12-03 07:00:00 7.6 11 Norte 25 Nordeste 0.6 938.8 -1.1 89
2019-12-03 06:00:00 7.7 10 Norte 24 Norte 3 938.6 -1.6 90
2019-12-03 05:00:00 7.4 10 Nordeste 27 Norte 4 939.4 -0.3 92
2019-12-03 04:00:00 7.8 8 Nordeste 31 Nordeste 4.6 939.9 -0.3 91
2019-12-03 03:00:00 8.1 13 Nordeste 31 Norte 3.8 940.2 0.1 92
2019-12-03 02:00:00 8.6 11 Norte 24 Norte 1.6 939.7 -0.7 91
2019-12-03 01:00:00 8.7 10 Nordeste 24 Norte 3.4 940.2 -0.2 91
2019-12-03 00:00:00 8.8 9 Nordeste 20 Norte 0.2 940.1 0.1 91
2019-12-02 23:00:00 8.9 9 Nordeste 22 Nordeste 0.6 940.4 0.8 92
2019-12-02 22:00:00 9 9 Nordeste 22 Nordeste 2 940.4 1.5 92
2019-12-02 21:00:00 9 9 Norte 20 Norte 2.2 940 1.4 92
2019-12-02 20:00:00 9 7 Nordeste 18 Norte 2.4 939.6 1.1 91
2019-12-02 19:00:00 8.9 7 Nordeste 17 Norte 1.8 938.9 0.7 90
2019-12-02 18:00:00 9 8 Norte 19 Nordeste 0.4 938.6 0.6 89
2019-12-02 17:00:00 9.1 8 Nordeste 20 Norte 0.2 938.5 0.2 89
2019-12-02 16:00:00 9.5 8 Norte 22 Norte 0 938.2 -0.3 89
2019-12-02 15:00:00 9.2 9 Norte 18 Nordeste 0.2 938 -1.1 90
2019-12-02 14:00:00 8.6 5 Nordeste 19 Norte 0.4 938.3 -0.7 90
2019-12-02 13:00:00 8.2 10 Norte 23 Norte 0.8 938.5 0.4 91
2019-12-02 12:00:00 8.1 8 Norte 20 Nordeste 1 939.1 1.6 91
2019-12-02 11:00:00 8.2 9 Nordeste 21 Norte 0 939 2.1 91
2019-12-02 10:00:00 8.2 8 Nordeste 21 Nordeste 0.2 938.1 1.7 91
2019-12-02 09:00:00 8.3 6 Nordeste 16 Nordeste 0 937.5 1.5 91
2019-12-02 08:00:00 8.2 9 Nordeste 17 Nordeste 2 936.9 0.7 90
2019-12-02 07:00:00 8.3 6 Nordeste 18 Norte 0.2 936.4 0.4 89
2019-12-02 06:00:00 8.1 7 Norte 19 Norte 0 936 0.1 90
2019-12-02 05:00:00 8 3 Sudeste 15 Este 0 936.2 0.1 90
2019-12-02 04:00:00 8 6 Nordeste 13 Nordeste 0 936 -0.2 90
2019-12-02 03:00:00 8.2 5 Nordeste 15 Este 0.6 935.9 -0.6 90
2019-12-02 02:00:00 8.4 2 Noroeste 18 Sur 3.8 936.1 -0.7 90
2019-12-02 01:00:00 8.6 3 Sur 16 Nordeste 0.4 936.2 -0.7 88
2019-12-02 00:00:00 9.4 3 Nordeste 11 Norte 0.2 936.5 -0.1 88
2019-12-01 23:00:00 9.5 4 Norte 8 Norte 0.2 936.8 0.3 89
2019-12-01 22:00:00 8.5 3 Noroeste 7 Noroeste 0 936.9 0.9 79
2019-12-01 21:00:00 7.8 0 Calma 8 Noroeste 0 936.6 0.5 78
2019-12-01 20:00:00 9 6 Noroeste 9 Noroeste 0 936.5 0.4 69
2019-12-01 19:00:00 8 6 Noroeste 8 Noroeste 0 936 -0.3 73
2019-12-01 18:00:00 10.3 5 Noroeste 9 Norte 0 936.1 -0.3 63
2019-12-01 17:00:00 13.5 5 Nordeste 14 Nordeste 0 936.1 -0.9 51
2019-12-01 16:00:00 14.5 8 Este 20 Nordeste 0 936.3 -1.5 52
2019-12-01 15:00:00 14.8 8 Este 19 Este 0 936.4 -2.3 56
2019-12-01 14:00:00 15.3 8 Este 19 Este 0 937 -2.3 56
2019-12-01 13:00:00 15.6 12 Este 23 Este 0 937.8 -1.5 57
2019-12-01 12:00:00 15 6 Norte 14 Nordeste 0 938.7 -0.4 60
2019-12-01 11:00:00 13.8 5 Este 11 Sudeste 0 939.3 0.6 62
2019-12-01 10:00:00 12.3 4 Nordeste 8 Sudoeste 0 939.3 0.7 67
2019-12-01 09:00:00 9.7 5 Sudoeste 23 Oeste 0 939.1 0.6 75
2019-12-01 08:00:00 9.9 10 Oeste 25 Oeste 0 938.7 -0.2 76
2019-12-01 07:00:00 10.4 14 Oeste 29 Oeste 0 938.6 -0.9 73
2019-12-01 06:00:00 10.1 14 Sudoeste 32 Sudoeste 0 938.5 -1.4 75
2019-12-01 05:00:00 9.3 8 Sudoeste 22 Sudoeste 0 938.9 -1.4 78
2019-12-01 04:00:00 9 12 Sudoeste 20 Sudoeste 0 939.5 -1.4 75
2019-12-01 03:00:00 9.8 15 Oeste 30 Oeste 0 939.9 -1.6 71
2019-12-01 02:00:00 8.8 9 Oeste 23 Oeste 0 940.3 -1.2 70
2019-12-01 01:00:00 7.5 8 Oeste 16 Oeste 0 940.9 -1.5 84
2019-12-01 00:00:00 7.6 4 Noroeste 16 Sudoeste 0 941.5 -1.1 83
2019-11-30 23:00:00 8.2 3 Nordeste 11 Oeste 0 941.5 -1 84
2019-11-30 22:00:00 8.4 8 Oeste 12 Sudoeste 0 942.4 0.2 83
2019-11-30 21:00:00 8.3 4 Noroeste 8 Sudoeste 0 942.6 0.4 84
2019-11-30 20:00:00 9.4 2 Sudoeste 6 Sur 0 942.5 0 80
2019-11-30 19:00:00 11 3 Norte 9 Noroeste 0 942.2 -0.9 78
2019-11-30 18:00:00 12.6 6 Noroeste 8 Noroeste 0 942.2 -1.4 77
2019-11-30 17:00:00 16.6 0 Calma 8 Este 0 942.5 -1.8 64
2019-11-30 16:00:00 17.2 3 Sudeste 12 Este 0 943.1 -2.2 59
2019-11-30 15:00:00 17.8 7 Nordeste 16 Nordeste 0 943.6 -2.9 58
2019-11-30 14:00:00 18.8 5 Este 12 Este 0 944.3 -3 52
2019-11-30 13:00:00 18.4 6 Este 12 Sudoeste 0 945.3 -2.2 56
2019-11-30 12:00:00 16.9 6 Sudoeste 15 Sudoeste 0 946.5 -1.2 57
2019-11-30 11:00:00 14.7 8 Sur 17 Sur 0 947.3 -0.4 67
2019-11-30 10:00:00 11 8 Sudoeste 15 Sur 0 947.5 0.4 76
2019-11-30 09:00:00 7.9 9 Oeste 15 Sudoeste 0 947.7 0.7 90
2019-11-30 08:00:00 5.9 4 Oeste 10 Oeste 0 947.7 0.4 90
2019-11-30 07:00:00 6.3 3 Oeste 11 Oeste 0 947.1 -0.3 90
2019-11-30 06:00:00 7.2 6 Sudoeste 10 Oeste 0 947 -0.6 91
2019-11-30 05:00:00 7.9 3 Sudeste 11 Oeste 0 947.3 -0.1 89
2019-11-30 04:00:00 7.9 4 Oeste 13 Oeste 0 947.4 -0.2 88
2019-11-30 03:00:00 8 2 Oeste 12 Sudoeste 0 947.6 0 87
2019-11-30 02:00:00 8.7 8 Oeste 16 Sudoeste 0 947.4 -0.3 85
2019-11-30 01:00:00 8.6 9 Oeste 18 Oeste 0 947.6 -0.1 85
2019-11-30 00:00:00 8.2 5 Oeste 10 Oeste 0 947.6 -0.1 88
2019-11-29 23:00:00 8.1 3 Oeste 9 Oeste 0 947.7 0.3 87
2019-11-29 22:00:00 9.3 4 Oeste 10 Oeste 0 947.7 0.7 85
2019-11-29 21:00:00 9.5 0 Calma 9 Noroeste 0 947.7 1.1 84
2019-11-29 20:00:00 11 6 Sudoeste 10 Noroeste 0 947.4 1.2 80
2019-11-29 19:00:00 11.8 5 Oeste 9 Noroeste 0 947 1.2 78
2019-11-29 18:00:00 13.7 4 Noroeste 10 Este 0 946.6 0.9 72
2019-11-29 17:00:00 16.5 6 Nordeste 13 Este 0 946.2 0.2 59
2019-11-29 16:00:00 17.6 6 Este 16 Este 0 945.8 -0.4 55
2019-11-29 15:00:00 18.3 9 Este 18 Nordeste 0 945.7 -0.8 53
2019-11-29 14:00:00 19.2 7 Este 17 Nordeste 0 946 -0.5 48
2019-11-29 13:00:00 18.6 8 Este 15 Este 0 946.2 0 50
2019-11-29 12:00:00 18.4 5 Nordeste 12 Este 0 946.5 0.6 51
2019-11-29 11:00:00 16.8 5 Sudoeste 19 Oeste 0 946.5 1.2 56
2019-11-29 10:00:00 12.8 12 Oeste 22 Oeste 0 946.2 1.5 66
2019-11-29 09:00:00 7.8 2 Noroeste 8 Noroeste 0 945.9 1.3 85
2019-11-29 08:00:00 6 3 Oeste 12 Sudoeste 0 945.3 0.7 85
2019-11-29 07:00:00 5.6 5 Noroeste 13 Sudoeste 0 944.7 -0.2 86
2019-11-29 06:00:00 7.1 5 Sudoeste 18 Oeste 0 944.6 -0.2 78
2019-11-29 05:00:00 7.1 7 Noroeste 21 Oeste 0 944.6 -0.1 76
2019-11-29 04:00:00 6.7 10 Oeste 19 Oeste 0 944.9 0.2 79
2019-11-29 03:00:00 6.2 9 Oeste 16 Oeste 0 944.8 -0.4 82
2019-11-29 02:00:00 4.9 3 Noroeste 19 Sudoeste 0 944.7 -0.3 87
2019-11-29 01:00:00 6.5 10 Oeste 16 Oeste 0 944.7 -0.2 84
2019-11-29 00:00:00 6.6 4 Noroeste 17 Oeste 0 945.2 1.1 84
2019-11-28 23:00:00 7.4 9 Oeste 18 Oeste 0 945 1.3 85
2019-11-28 22:00:00 6.8 3 Sudoeste 13 Noroeste 0 944.9 1.9 86
2019-11-28 21:00:00 7.6 3 Oeste 9 Noroeste 0 944.1 1.3 85
2019-11-28 20:00:00 9 4 Noroeste 13 Noroeste 0 943.7 0.9 80
2019-11-28 19:00:00 10.6 6 Noroeste 13 Noroeste 0 943 0.7 74
2019-11-28 18:00:00 12 6 Noroeste 8 Noroeste 0 942.8 0.5 72
2019-11-28 17:00:00 15.3 6 Este 14 Nordeste 0 942.8 0.1 56
2019-11-28 16:00:00 16.1 10 Nordeste 19 Nordeste 0 942.3 -1.1 52
2019-11-28 15:00:00 17.7 7 Nordeste 19 Nordeste 0 942.3 -1.9 48
2019-11-28 14:00:00 17.8 5 Sudeste 21 Nordeste 0 942.7 -1.8 49
2019-11-28 13:00:00 17.6 7 Este 14 Este 0 943.4 -0.7 49
2019-11-28 12:00:00 17.3 8 Sudoeste 17 Sudoeste 0 944.2 0.3 47
2019-11-28 11:00:00 14.8 10 Sudoeste 20 Sur 0 944.5 1.6 56
2019-11-28 10:00:00 12 9 Sudoeste 19 Sudoeste 0 944.1 1.8 63
2019-11-28 09:00:00 8.6 2 Sudoeste 21 Sudoeste 0 943.9 1.9 73
2019-11-28 08:00:00 8.3 14 Sudoeste 25 Oeste 0 942.9 1.1 72
2019-11-28 07:00:00 9.3 11 Oeste 28 Oeste 0 942.3 0.3 69
2019-11-28 06:00:00 9.7 12 Sudoeste 27 Oeste 0 942 0.4 64
2019-11-28 05:00:00 9.9 14 Oeste 27 Oeste 0 941.8 0.4 62
2019-11-28 04:00:00 9.5 7 Oeste 15 Oeste 0 942 0.6 63
2019-11-28 03:00:00 10.8 12 Oeste 19 Noroeste 0 941.6 0.3 58
2019-11-28 02:00:00 10.7 8 Oeste 17 Sur 0 941.4 0.4 59
2019-11-28 01:00:00 9.6 8 Sur 14 Sur 0 941.4 0.4 64
2019-11-28 00:00:00 8.7 6 Noroeste 11 Nordeste 0 941.3 0.7 70
2019-11-27 23:00:00 7.9 4 Nordeste 12 Noroeste 0 941 0.6 74
2019-11-27 22:00:00 8 5 Norte 14 Sudoeste 0 941 1.3 71
2019-11-27 21:00:00 8.1 4 Oeste 13 Oeste 0 940.6 1.3 72
2019-11-27 20:00:00 10.6 3 Nordeste 18 Sudoeste 0 940.4 1.6 61
2019-11-27 19:00:00 10.9 5 Oeste 15 Oeste 0 939.7 1.4 60
2019-11-27 18:00:00 13.7 9 Oeste 25 Oeste 0 939.3 0.8 48
2019-11-27 17:00:00 16 7 Noroeste 20 Sudoeste 0 938.8 0 41
2019-11-27 16:00:00 17.5 10 Oeste 35 Oeste 0 938.3 -1 39
2019-11-27 15:00:00 18.1 7 Noroeste 31 Oeste 0 938.5 -1.3 36
2019-11-27 14:00:00 18.5 12 Oeste 32 Sudoeste 0 938.8 -1.1 37
2019-11-27 06:00:00 11.6 9 Oeste 17 Oeste 0 937.4 -0.3 80
2019-11-27 05:00:00 11.8 4 Sudeste 17 Sur 0 937.4 -0.3 79
2019-11-27 04:00:00 12.4 8 Sur 24 Sudoeste 0 937.2 -0.8 75
2019-11-27 03:00:00 13.5 13 Sudoeste 31 Oeste 0 937.7 0 72
2019-11-27 02:00:00 14.5 18 Oeste 30 Oeste 0 937.7 -0.2 65
2019-11-27 01:00:00 13.7 16 Oeste 28 Sudoeste 0 938 -0.1 66
2019-11-27 00:00:00 10.3 6 Sudoeste 17 Sudoeste 0 937.7 -0.9 73
2019-11-26 23:00:00 10.2 4 Oeste 16 Oeste 0 937.9 -0.9 75
2019-11-26 22:00:00 11.4 11 Oeste 17 Sudoeste 0 938.1 -0.4 75
2019-11-26 21:00:00 10.6 4 Noroeste 11 Oeste 0 938.6 -0.2 80
2019-11-26 20:00:00 12.2 4 Noroeste 15 Oeste 0 938.8 0.5 80
2019-11-26 19:00:00 12.5 6 Oeste 9 Sur 0 938.5 -0.2 82
2019-11-26 18:00:00 14.4 5 Oeste 15 Sudoeste 0 938.8 -0.3 74
2019-11-26 17:00:00 17.3 12 Sudoeste 20 Sudoeste 0 938.3 -1.4 63
2019-11-26 16:00:00 18.3 5 Oeste 14 Sudoeste 0 938.7 -1.5 59
2019-11-26 15:00:00 19 6 Sudeste 18 Este 0 939.1 -2.2 53
2019-11-26 14:00:00 19.6 4 Sudeste 13 Este 0 939.7 -2.3 48
2019-11-26 13:00:00 19.1 6 Este 12 Este 0 940.2 -1.6 47
2019-11-26 12:00:00 18.7 3 Sur 9 Oeste 0 941.3 -0.3 47
2019-11-26 11:00:00 16.4 3 Sudoeste 8 Sudeste 0 942 0.5 55
2019-11-26 10:00:00 13.1 7 Sudoeste 14 Oeste 0 941.8 0.4 66
2019-11-26 09:00:00 9 10 Oeste 19 Sudoeste 0 941.6 0.1 74
2019-11-26 08:00:00 7.9 12 Oeste 21 Oeste 0 941.5 -0.2 78
2019-11-26 07:00:00 8.6 12 Oeste 22 Oeste 0 941.4 -0.2 77
2019-11-26 06:00:00 9.3 13 Oeste 21 Oeste 0 941.5 -0.2 78
2019-11-26 05:00:00 8 6 Oeste 15 Sudoeste 0 941.7 0.1 80
2019-11-26 04:00:00 8.8 4 Sur 19 Oeste 0 941.6 -0.4 78
2019-11-26 03:00:00 8.3 5 Sudoeste 12 Oeste 0 941.7 -0.7 84
2019-11-26 02:00:00 8.8 5 Oeste 12 Noroeste 0 941.6 -0.9 82
2019-11-26 01:00:00 9.4 4 Noroeste 9 Noroeste 0 942 -0.4 81
2019-11-26 00:00:00 11.5 6 Oeste 14 Oeste 0 942.4 0.4 73
2019-11-25 23:00:00 11.3 5 Sudoeste 10 Noroeste 0 942.5 0.9 74
2019-11-25 22:00:00 11.1 4 Oeste 10 Oeste 0 942.4 1 76
2019-11-25 21:00:00 11.4 3 Oeste 9 Este 0 942 1.1 73
2019-11-25 20:00:00 12.4 4 Nordeste 13 Sur 0 941.6 1.1 69
2019-11-25 19:00:00 14.7 3 Norte 25 Oeste 0 941.4 1.5 58
2019-11-25 18:00:00 16.2 6 Oeste 29 Oeste 0 940.9 0.9 55
2019-11-25 17:00:00 18 12 Oeste 37 Sudoeste 0 940.5 0.2 50
2019-11-25 16:00:00 18.6 10 Oeste 34 Oeste 0 939.9 -0.7 49
2019-11-25 15:00:00 18 26 Oeste 48 Oeste 0 940 -1.6 52
2019-11-25 14:00:00 18.5 17 Oeste 36 Sudoeste 0 940.3 -1.3 52
2019-11-25 13:00:00 17.9 13 Sudoeste 31 Sudoeste 0 940.6 -1.1 57
2019-11-25 12:00:00 15.9 10 Sur 25 Sudoeste 0 941.6 0.3 62
2019-11-25 11:00:00 14.6 14 Sudoeste 32 Sudoeste 0 941.6 0.6 62
2019-11-25 10:00:00 12.3 20 Sudoeste 31 Sudoeste 0 941.7 0.7 66
2019-11-25 09:00:00 9.9 18 Oeste 36 Sudoeste 0 941.3 1.6 71
2019-11-25 08:00:00 9 18 Oeste 27 Oeste 0 941 0.8 75
2019-11-25 07:00:00 10.7 18 Oeste 32 Oeste 0 941 0.5 68
2019-11-25 06:00:00 10.7 6 Oeste 17 Sudoeste 0 939.7 -1.1 78
2019-11-25 05:00:00 5.9 4 Nordeste 13 Noroeste 0 940.2 -0.5 83
2019-11-25 04:00:00 4.9 5 Oeste 9 Nordeste 0 940.5 -0.5 85
2019-11-25 03:00:00 5.5 6 Oeste 12 Noroeste 0 940.8 -0.6 82
2019-11-25 02:00:00 7.5 4 Oeste 22 Sudoeste 0 940.7 -0.8 72
2019-11-25 01:00:00 7.8 6 Oeste 19 Sudoeste 0 941 -0.4 71
2019-11-25 00:00:00 7.6 7 Sudoeste 22 Sudoeste 0 941.4 0.6 68
2019-11-24 23:00:00 7.7 10 Oeste 19 Oeste 0 941.5 0.5 64
2019-11-24 22:00:00 4.2 5 Noroeste 12 Noroeste 0 941.4 0.8 71
2019-11-24 21:00:00 4.4 2 Sudoeste 12 Noroeste 0 940.8 0.5 69
2019-11-24 20:00:00 5.4 4 Noroeste 17 Oeste 0 941 1 65
2019-11-24 19:00:00 7.5 8 Oeste 13 Sudoeste 0 940.6 0.9 52
2019-11-24 18:00:00 8 4 Sudoeste 8 Noroeste 0 940.3 0.9 65
2019-11-24 17:00:00 12.4 3 Oeste 12 Sudeste 0 940 0.5 35
2019-11-24 16:00:00 13.4 3 Sur 10 Sudeste 0 939.7 -0.3 34
2019-11-24 15:00:00 14.2 6 Sudoeste 19 Sudoeste 0 939.4 -1.6 30
2019-11-24 14:00:00 14.5 6 Oeste 19 Oeste 0 939.5 -1.8 32
2019-11-24 13:00:00 14.9 4 Este 19 Sudoeste 0 940 -1.1 37
2019-11-24 12:00:00 13.2 4 Oeste 28 Oeste 0 941 0.3 41
2019-11-24 11:00:00 12 14 Oeste 28 Oeste 0 941.3 1.2 43
2019-11-24 10:00:00 11.5 5 Sudeste 17 Sudoeste 0 941.1 2.1 51
2019-11-24 09:00:00 8.2 9 Sudoeste 22 Noroeste 0 940.7 2.1 57
2019-11-24 08:00:00 6 10 Sudoeste 22 Sur 0 940.1 2 66
2019-11-24 07:00:00 4.5 4 Este 15 Nordeste 0 939 1.3 72
2019-11-24 06:00:00 5.7 5 Nordeste 19 Oeste 0 938.6 1.3 67
2019-11-24 05:00:00 6.4 4 Sur 23 Oeste 0 938.1 1 63
2019-11-24 04:00:00 8.6 10 Oeste 34 Oeste 0 937.7 0.7 53
2019-11-24 03:00:00 8.9 16 Oeste 37 Oeste 0 937.3 0.8 52
2019-11-24 02:00:00 8.7 13 Oeste 28 Oeste 0 937.1 1.4 53
2019-11-24 01:00:00 8.3 10 Oeste 24 Sudoeste 0 937 1.3 53
2019-11-24 00:00:00 8.8 14 Sudoeste 32 Sudoeste 0 936.5 1.6 53
2019-11-23 23:00:00 9.8 12 Oeste 35 Oeste 0 935.7 1.6 48
2019-11-23 22:00:00 9.6 8 Oeste 39 Noroeste 0 935.7 2.2 51
2019-11-23 21:00:00 10.1 18 Noroeste 45 Norte 0 934.9 2.2 47
2019-11-23 20:00:00 10.3 13 Noroeste 37 Norte 0 934.1 2.7 45
2019-11-23 19:00:00 10.4 10 Noroeste 26 Noroeste 0 933.5 2.6 42
2019-11-23 18:00:00 10 7 Este 27 Oeste 0 932.7 3.3 48
2019-11-23 17:00:00 11.7 10 Oeste 42 Oeste 0 931.4 2.6 39
2019-11-23 16:00:00 12.8 12 Noroeste 41 Norte 0 930.9 2.5 38
2019-11-23 15:00:00 13 15 Oeste 36 Sudoeste 0 929.4 1.9 37
2019-11-23 14:00:00 13.2 19 Oeste 37 Sudoeste 0 928.8 3.4 39
2019-11-23 13:00:00 13 8 Oeste 34 Oeste 0 928.4 2.1 39
2019-11-23 12:00:00 13.4 13 Sudoeste 67 Oeste 0 927.5 1.4 37
2019-11-23 11:00:00 11.9 28 Oeste 68 Oeste 0 925.4 -0.1 41
2019-11-23 10:00:00 11.3 24 Oeste 57 Oeste 0 926.3 2.1 45
2019-11-23 09:00:00 10.1 17 Oeste 47 Sudoeste 0 926.1 1.2 55
2019-11-23 08:00:00 8.3 15 Sudoeste 35 Sur 0 925.5 0.6 61
2019-11-23 07:00:00 7.2 17 Sudoeste 37 Sudoeste 0.2 924.2 1.5 80
2019-11-23 06:00:00 7.3 9 Oeste 54 Oeste 2.4 924.9 2.3 84
2019-11-23 05:00:00 8.9 16 Oeste 57 Oeste 1.4 924.9 3.8 74
2019-11-23 04:00:00 10.7 26 Oeste 48 Oeste 0 922.7 0.9 55
2019-11-23 03:00:00 11.7 27 Oeste 76 Oeste 0 922.6 -0.5 51
2019-11-23 02:00:00 12.4 32 Oeste 75 Oeste 0 921.1 -2.4 45
2019-11-23 01:00:00 11.8 22 Oeste 49 Oeste 0 921.8 -2.2 49
2019-11-23 00:00:00 9.3 6 Este 26 Oeste 0 923.1 -0.7 78
2019-11-22 23:00:00 10 9 Sudoeste 24 Oeste 0.2 923.5 -0.4 81
2019-11-22 22:00:00 10.5 11 Oeste 19 Sudoeste 0 924 -0.3 90
2019-11-22 21:00:00 10.7 8 Sudoeste 17 Oeste 0 923.8 -1.2 91
2019-11-22 20:00:00 11.3 9 Sudoeste 23 Sudoeste 2.8 923.9 -0.9 90
2019-11-22 19:00:00 11.7 8 Sudoeste 27 Sudoeste 3.2 924.3 -1.6 89
2019-11-22 18:00:00 11.6 9 Sudoeste 23 Sudoeste 1.2 925 -1.5 89
2019-11-22 17:00:00 11.7 9 Sudoeste 24 Oeste 0.8 924.8 -2.7 88
2019-11-22 16:00:00 12 13 Sudoeste 27 Oeste 0.4 925.9 -2.9 86
2019-11-22 15:00:00 12.8 11 Sudoeste 26 Sur 0 926.5 -3.8 77
2019-11-22 14:00:00 13.9 15 Sudoeste 26 Sur 0 927.5 -4.6 72
2019-11-22 13:00:00 13.7 9 Sudoeste 21 Sudoeste 0 928.8 -3.2 72
2019-11-22 12:00:00 12.6 12 Sudoeste 22 Sudoeste 0 930.3 -2.2 79
2019-11-22 11:00:00 11.2 9 Sudoeste 16 Sudoeste 0 932.1 0 81
2019-11-22 10:00:00 10.1 9 Sudoeste 15 Sudoeste 0 932 -0.1 82
2019-11-22 09:00:00 9 9 Sudoeste 16 Sudoeste 0 932.5 0 84
2019-11-22 08:00:00 8.8 9 Oeste 13 Oeste 0 932.1 -0.8 85
2019-11-22 07:00:00 8.5 8 Sudoeste 14 Oeste 0 932.1 -1.1 86
2019-11-22 06:00:00 6.5 4 Oeste 11 Sudoeste 0 932.5 -1.2 89
2019-11-22 05:00:00 7.7 9 Oeste 19 Oeste 0 932.9 -0.9 87
2019-11-22 04:00:00 7.7 10 Oeste 17 Noroeste 0 933.2 -1.1 88
2019-11-22 03:00:00 6.9 6 Noroeste 10 Noroeste 0 933.7 -0.8 90
2019-11-22 02:00:00 7.1 3 Oeste 13 Sudoeste 0 933.8 -0.6 88
2019-11-22 01:00:00 8.7 9 Sudoeste 17 Oeste 0 934.3 -0.6 87
2019-11-22 00:00:00 8.9 8 Sudoeste 14 Sudoeste 0 934.5 -0.6 89
2019-11-21 23:00:00 9 8 Oeste 14 Oeste 0.2 934.4 -0.5 90
2019-11-21 22:00:00 9.1 0 Calma 4 Sudoeste 0.4 934.9 0.3 89
2019-11-21 21:00:00 9.2 0 Calma 8 Oeste 0 935.1 0.6 88
2019-11-21 20:00:00 9.7 0 Calma 10 Sur 0 934.9 0.5 84
2019-11-21 19:00:00 10.4 2 Noroeste 8 Este 0 934.6 0.4 80
2019-11-21 18:00:00 11.9 2 Sudeste 12 Sudoeste 0 934.5 0.3 72
2019-11-21 17:00:00 13.1 4 Sudoeste 18 Sudoeste 0 934.4 -0.6 66
2019-11-21 16:00:00 14.2 8 Sudoeste 26 Sudoeste 0 934.2 -1.3 59
2019-11-21 15:00:00 14.1 3 Sur 22 Sudoeste 0 934.2 -2 61
2019-11-21 14:00:00 13.6 9 Sur 26 Sudoeste 0 935 -1.3 62
2019-11-21 13:00:00 11.5 10 Sudoeste 22 Sur 0 935.5 -0.8 69
2019-11-21 12:00:00 10.8 11 Sudoeste 20 Sudoeste 0 936.2 -0.1 71
2019-11-21 11:00:00 10.7 7 Sudoeste 23 Oeste 0 936.3 0.4 67
2019-11-21 10:00:00 9.5 8 Oeste 18 Oeste 0 936.3 1 72
2019-11-21 09:00:00 8.2 9 Oeste 18 Oeste 0 936.3 1.3 79
2019-11-21 08:00:00 7.2 8 Sudoeste 19 Sudoeste 0 935.9 0.9 80
2019-11-21 07:00:00 7.2 10 Sudoeste 18 Sudoeste 0 935.3 -0.1 79
2019-11-21 06:00:00 8 8 Sudoeste 26 Oeste 0 935 -0.4 74
2019-11-21 05:00:00 7.6 13 Oeste 22 Oeste 0 935 -0.5 79
2019-11-21 04:00:00 5.3 11 Sudoeste 17 Oeste 0 935.4 -0.3 86
2019-11-21 03:00:00 4.4 3 Oeste 16 Oeste 0 935.4 -0.4 84
2019-11-21 02:00:00 6.6 10 Oeste 19 Oeste 0 935.5 -0.5 78
2019-11-21 01:00:00 6.1 10 Oeste 16 Oeste 0 935.7 -0.2 80
2019-11-21 00:00:00 6.5 6 Oeste 18 Sudoeste 0 935.8 0 79
2019-11-20 23:00:00 6.6 8 Oeste 14 Oeste 0 936 0.2 79
2019-11-20 22:00:00 6.5 6 Oeste 12 Oeste 0 935.9 0.4 80
2019-11-20 21:00:00 6.3 6 Sudoeste 14 Oeste 0 935.8 0.3 82
2019-11-20 20:00:00 7 8 Oeste 12 Sudoeste 0 935.8 0.4 80
2019-11-20 19:00:00 7.1 4 Sudoeste -- -- -- 935.5 0.2 83
2019-11-20 18:00:00 8.4 13 Sudoeste 29 Sudoeste 0.2 935.5 0.3 72
2019-11-20 17:00:00 11 2 Norte 14 Nordeste 0 935.4 -0.4 61
2019-11-20 16:00:00 12 7 Nordeste 18 Nordeste 0 935.3 -1.3 53
2019-11-20 15:00:00 12.3 10 Nordeste 19 Este 0 935.2 -2.2 52
2019-11-20 14:00:00 12.5 9 Este 17 Este 0 935.8 -2.5 49
2019-11-20 13:00:00 12.9 11 Sudoeste 21 Sur 0 936.6 -2.1 40
2019-11-20 12:00:00 12.5 9 Sudoeste 17 Sudoeste 0 937.4 -1.1 44
2019-11-20 11:00:00 10.4 8 Sudoeste 13 Sudoeste 0 938.3 0 51
2019-11-20 10:00:00 6.8 9 Sudoeste 16 Sudoeste 0 938.7 0.3 59
2019-11-20 09:00:00 3.1 12 Oeste 22 Oeste 0 938.5 -0.2 71
2019-11-20 08:00:00 0.9 11 Oeste 21 Oeste 0 938.3 -0.3 81
2019-11-20 07:00:00 0.9 13 Oeste 21 Oeste 0 938.4 -0.8 82
2019-11-20 06:00:00 0.1 0 Calma 23 Oeste 0 938.7 -0.9 84
2019-11-20 05:00:00 2.1 16 Oeste 24 Oeste 0 938.6 -1.5 79
2019-11-20 04:00:00 2.3 13 Oeste 20 Sudoeste 0 939.2 -1.4 79
2019-11-20 03:00:00 2.5 9 Oeste 22 Oeste 0 939.6 -1.3 78
2019-11-20 02:00:00 3.1 13 Oeste 20 Oeste 0 940.1 -1.1 75
2019-11-20 01:00:00 3.1 12 Sudoeste 17 Sudoeste 0 940.6 -0.6 75
2019-11-20 00:00:00 3.8 6 Sudoeste 11 Noroeste 0 940.9 -0.5 74
2019-11-19 23:00:00 4.5 6 Noroeste 12 Noroeste 0 941.2 -0.1 72
2019-11-19 22:00:00 5.5 7 Noroeste 12 Noroeste 0 941.2 0.2 69
2019-11-19 21:00:00 6.1 6 Noroeste 11 Noroeste 0 941.4 0.8 67
2019-11-19 20:00:00 6.4 0 Calma 9 Oeste 0 941.3 0.9 69
2019-11-19 19:00:00 7.7 5 Oeste 9 Noroeste 0 941 0.5 63
2019-11-19 18:00:00 8 4 Noroeste 6 Noroeste 0 940.6 0 62
2019-11-19 17:00:00 10.7 4 Este 15 Este 0 940.4 -0.7 44
2019-11-19 16:00:00 11.8 8 Este 19 Este 0 940.5 -1.3 38
2019-11-19 15:00:00 12.5 9 Sudeste 19 Sur 0 940.6 -2.4 38
2019-11-19 14:00:00 13.1 13 Sudoeste 22 Sudoeste 0 941.1 -2.5 39
2019-11-19 13:00:00 12.5 9 Norte 19 Norte 0 941.8 -1.7 35
2019-11-19 12:00:00 10.4 9 Sudoeste 16 Oeste 0 943 -0.3 46
2019-11-19 11:00:00 9.2 9 Sudoeste 19 Oeste 0 943.6 0.6 54
2019-11-19 10:00:00 7.3 11 Oeste 23 Oeste 0 943.5 0.8 57
2019-11-19 09:00:00 3.6 15 Oeste 24 Oeste 0 943.3 0.6 66
2019-11-19 08:00:00 2.1 17 Oeste 27 Sudoeste 0 943 0.9 70
2019-11-19 07:00:00 2.5 11 Oeste 24 Oeste 0 942.7 0.4 70
2019-11-19 06:00:00 2.9 15 Oeste 20 Oeste 0 942.7 0.8 68
2019-11-19 05:00:00 3.2 13 Oeste 22 Sudoeste 0 942.1 0 67
2019-11-19 04:00:00 2 8 Oeste 15 Sudoeste 0 942.3 0.3 81
2019-11-19 03:00:00 3.3 4 Nordeste 14 Oeste 0 941.9 -0.6 69
2019-11-19 02:00:00 4.8 7 Sudoeste 19 Oeste 0 942.1 -0.4 62
2019-11-19 01:00:00 3.1 5 Este 15 Oeste 0 942 0.1 73
2019-11-19 00:00:00 5.2 7 Oeste 16 Oeste 0 942.5 0.9 64
2019-11-18 23:00:00 3.8 6 Noroeste 11 Oeste 0 942.5 1.3 74
2019-11-18 22:00:00 4 6 Noroeste 12 Noroeste 0 941.9 1.2 74
2019-11-18 21:00:00 6.8 8 Oeste 17 Norte 0 941.6 1.5 55
2019-11-18 20:00:00 5.7 6 Oeste 13 Oeste 0 941.2 1.7 63
2019-11-18 19:00:00 7.7 8 Oeste 18 Noroeste 0 940.7 2.4 51
2019-11-18 18:00:00 8.8 3 Norte 25 Norte 0 940.1 2.2 47
2019-11-18 17:00:00 10.2 8 Norte 39 Norte 0 939.5 2 44
2019-11-18 16:00:00 11.7 9 Noroeste 27 Norte 0 938.3 0.8 42
2019-11-18 15:00:00 11.3 11 Norte 31 Norte 0 937.9 0.1 43
2019-11-18 14:00:00 12.1 15 Norte 37 Norte 0 937.5 0.2 42
2019-11-18 13:00:00 12.2 17 Norte 36 Norte 0 937.5 1.4 39
2019-11-18 12:00:00 12 10 Norte 34 Norte 0 937.8 1.8 45
2019-11-18 11:00:00 12.1 10 Sudeste 36 Sudeste 0 937.3 2.1 47
2019-11-18 10:00:00 10.2 5 Sudoeste 27 Noroeste 0 936.1 0.7 55
2019-11-18 09:00:00 6.5 3 Oeste 16 Noroeste 0 936 1.4 79
2019-11-18 08:00:00 5.8 6 Oeste 24 Norte 0 935.2 0.5 75
2019-11-18 07:00:00 5.3 4 Oeste 12 Oeste 0 935.4 0.4 88
2019-11-18 06:00:00 6.1 4 Noroeste 9 Norte 0 934.6 -0.4 90
2019-11-18 05:00:00 6.7 3 Sudoeste 10 Sur 0.2 934.7 0.1 90
2019-11-18 04:00:00 7.1 5 Sudoeste 28 Norte 3.8 935 0.2 88
2019-11-18 03:00:00 8.1 11 Nordeste 40 Nordeste 0.4 935 -0.2 90
2019-11-18 02:00:00 8.3 4 Este 14 Nordeste 0.2 934.6 -1.6 89
2019-11-18 01:00:00 9 5 Sudoeste 20 Sudoeste 0.2 934.8 -2.1 88
2019-11-18 00:00:00 8.6 9 Sudoeste 18 Sudoeste 1 935.2 -2 88
2019-11-17 23:00:00 8.9 10 Sudoeste 15 Sudoeste 0.2 936.2 -1.2 83
2019-11-17 22:00:00 9.6 8 Sudoeste 18 Sur 0 936.9 -0.7 76
2019-11-17 21:00:00 9.3 12 Sudoeste 25 Sur 0 937.2 -0.8 73
2019-11-17 20:00:00 10.1 12 Oeste 30 Sudoeste 0 937.4 -0.8 68
2019-11-17 19:00:00 10.1 17 Oeste 32 Oeste 0 937.6 -0.6 66
2019-11-17 18:00:00 10.7 15 Sudoeste 30 Sudoeste 0 938 -0.4 63
2019-11-17 17:00:00 13.8 14 Oeste 39 Oeste 0 938.2 -0.7 49
2019-11-17 16:00:00 14 16 Oeste 33 Oeste 0 938.2 -1.8 47
2019-11-17 15:00:00 13 15 Sudoeste 41 Sudoeste 0 938.4 -2.6 47
2019-11-17 14:00:00 13.2 17 Sudoeste 36 Sur 0 938.9 -2.4 43
2019-11-17 13:00:00 13.1 9 Sur 21 Sudoeste 0 940 -1.2 42
2019-11-17 12:00:00 11 12 Sudoeste 26 Sudoeste 0 941 0.1 40
2019-11-17 11:00:00 12.3 15 Oeste 25 Oeste 0 941.3 0.6 32
2019-11-17 10:00:00 9.4 5 Nordeste 12 Sudeste 0 941.2 0.8 42
2019-11-17 09:00:00 -- -- -- -- -- -- -- -- --
2019-11-17 08:00:00 -- -- -- -- -- -- -- -- --
2019-11-17 07:00:00 -- -- -- -- -- -- -- -- --
2019-11-17 06:00:00 -- -- -- -- -- -- -- -- --
2019-11-17 05:00:00 -- -- -- -- -- -- -- -- --
2019-11-17 04:00:00 -- -- -- -- -- -- -- -- --
2019-11-17 03:00:00 -- -- -- -- -- -- -- -- --
2019-11-17 02:00:00 -- -- -- -- -- -- -- -- --
2019-11-17 01:00:00 -- -- -- -- -- -- -- -- --
2019-11-17 00:00:00 -- -- -- -- -- -- -- -- --
2019-11-16 23:00:00 -- -- -- -- -- -- -- -- --
2019-11-16 22:00:00 -- -- -- -- -- -- -- -- --
2019-11-16 21:00:00 -- -- -- -- -- -- -- -- --
2019-11-16 20:00:00 -- -- -- -- -- -- -- -- --
2019-11-16 19:00:00 -- -- -- -- -- -- -- -- --
2019-11-16 18:00:00 -- -- -- -- -- -- -- -- --
2019-11-16 17:00:00 -- -- -- -- -- -- -- -- --
2019-11-16 16:00:00 -- -- -- -- -- -- -- -- --
2019-11-16 15:00:00 -- -- -- -- -- -- -- -- --
2019-11-16 14:00:00 -- -- -- -- -- -- -- -- --
2019-11-16 13:00:00 -- -- -- -- -- -- -- -- --
2019-11-16 12:00:00 -- -- -- -- -- -- -- -- --
2019-11-16 11:00:00 -- -- -- -- -- -- -- -- --
2019-11-16 10:00:00 -- -- -- -- -- -- -- -- --
2019-11-16 09:00:00 -- -- -- -- -- -- -- -- --
2019-11-16 08:00:00 -- -- -- -- -- -- -- -- --
2019-11-16 07:00:00 -- -- -- -- -- -- -- -- --
2019-11-16 06:00:00 -- -- -- -- -- -- -- -- --
2019-11-16 05:00:00 -- -- -- -- -- -- -- -- --
2019-11-16 04:00:00 -- -- -- -- -- -- -- -- --
2019-11-16 03:00:00 -- -- -- -- -- -- -- -- --
2019-11-16 02:00:00 -- -- -- -- -- -- -- -- --
2019-11-16 01:00:00 -- -- -- -- -- -- -- -- --
2019-11-16 00:00:00 -- -- -- -- -- -- -- -- --
2019-11-15 23:00:00 -- -- -- -- -- -- -- -- --
2019-11-15 22:00:00 -- -- -- -- -- -- -- -- --
2019-11-15 21:00:00 -- -- -- -- -- -- -- -- --
2019-11-15 20:00:00 -- -- -- -- -- -- -- -- --
2019-11-15 19:00:00 -- -- -- -- -- -- -- -- --
2019-11-15 18:00:00 -- -- -- -- -- -- -- -- --
2019-11-15 17:00:00 -- -- -- -- -- -- -- -- --
2019-11-15 16:00:00 -- -- -- -- -- -- -- -- --
2019-11-15 15:00:00 -- -- -- -- -- -- -- -- --
2019-11-15 14:00:00 9.6 14 Oeste 33 Oeste 0 930.8 -1 38
2019-11-15 13:00:00 10.3 10 Noroeste 28 Oeste 0 931.3 -0.2 36
2019-11-15 12:00:00 10.8 15 Oeste 28 Norte 0 931.7 0.9 35
2019-11-15 11:00:00 9.4 10 Oeste 21 Sudoeste 0 931.8 1.7 45
2019-11-15 10:00:00 7.1 3 Sudoeste 10 Sudoeste 0 931.5 1.9 58
2019-11-15 09:00:00 6.2 6 Sudoeste 11 Sudoeste 0 930.8 1.3 64
2019-11-15 08:00:00 5.3 5 Sudoeste 16 Oeste 0 930.1 1 68
2019-11-15 07:00:00 5.8 0 Calma 9 Nordeste 0 929.6 1.1 66
2019-11-15 06:00:00 6 4 Sur 9 Oeste 0 929.5 1.3 66
2019-11-15 05:00:00 5.6 4 Noroeste 11 Sur 0 929.1 1.6 62
2019-11-15 04:00:00 6.4 6 Sudoeste 18 Sudoeste 0 928.5 0.9 58
2019-11-15 03:00:00 7.6 8 Este 27 Oeste 0 928.2 0.3 51
2019-11-15 02:00:00 8.6 10 Oeste 55 Oeste 0 927.5 -0.6 47
2019-11-15 01:00:00 8.5 30 Oeste 66 Oeste 0 927.6 -0.6 48
2019-11-15 00:00:00 9 34 Oeste 66 Oeste 0 927.9 -0.4 46